createdAt,value
2023-03-22T00:01:30.662Z,1.02
2023-03-22T00:05:31.111Z,1.00
2023-03-22T00:56:26.665Z,0.50
2023-03-22T01:00:27.748Z,0.50
2023-03-22T01:04:27.936Z,0.38
2023-03-22T01:08:28.142Z,0.50
2023-03-22T01:12:28.389Z,0.50
2023-03-22T01:16:28.636Z,0.49
2023-03-22T03:08:38.360Z,0.53
2023-03-22T03:12:35.402Z,0.55
2023-03-22T03:16:36.213Z,0.53
2023-03-22T03:20:35.483Z,0.51
2023-03-22T03:24:35.458Z,0.54
2023-03-22T03:28:35.479Z,0.53
2023-03-22T03:32:36.185Z,0.51
2023-03-22T03:36:36.217Z,0.51
2023-03-22T03:40:36.177Z,0.51
2023-03-22T03:44:36.340Z,0.52
2023-03-22T04:52:42.891Z,0.53
2023-03-22T05:32:41.085Z,0.53
2023-03-22T05:36:41.107Z,0.53
2023-03-22T05:40:41.697Z,0.53
2023-03-22T05:44:41.479Z,0.52
2023-03-22T05:48:41.705Z,0.52
2023-03-22T05:52:41.934Z,0.52
2023-03-22T05:56:42.171Z,0.53
2023-03-22T08:08:45.532Z,1.05
2023-03-22T08:28:49.193Z,0.99
2023-03-22T08:32:46.486Z,0.94
2023-03-22T08:36:45.983Z,1.14
2023-03-22T09:32:45.982Z,1.20
2023-03-22T09:36:45.498Z,1.15
2023-03-22T09:40:45.499Z,1.06
2023-03-22T09:44:45.532Z,0.79
2023-03-22T09:48:48.332Z,0.81
2023-03-22T09:52:45.506Z,0.74
2023-03-22T09:56:45.548Z,0.61
2023-03-22T10:04:45.505Z,0.68
2023-03-22T10:08:46.255Z,0.58
2023-03-22T10:12:45.509Z,0.53
2023-03-22T10:16:45.172Z,0.55
2023-03-22T10:20:45.514Z,0.52
2023-03-22T10:24:45.537Z,0.50
2023-03-22T10:28:45.545Z,0.63
2023-03-22T10:32:57.146Z,0.92
2023-03-22T10:36:46.056Z,1.19
2023-03-22T10:40:46.024Z,1.23
2023-03-22T10:44:46.050Z,1.29
2023-03-22T10:48:45.557Z,1.11
2023-03-22T10:52:45.533Z,1.26
2023-03-22T10:56:46.322Z,1.24
2023-03-22T11:00:46.105Z,1.00
2023-03-22T11:04:45.562Z,0.98
2023-03-22T11:08:45.535Z,0.85
2023-03-22T11:12:45.541Z,0.91
2023-03-22T11:21:03.820Z,0.50
2023-03-22T11:25:04.802Z,0.50
2023-03-22T11:29:04.767Z,0.49
2023-03-22T11:33:04.306Z,0.34
2023-03-22T11:37:04.320Z,0.34
2023-03-22T11:41:03.784Z,0.43
2023-03-22T11:45:03.704Z,0.80
2023-03-22T11:49:03.877Z,0.55
2023-03-22T11:53:03.804Z,0.94
2023-03-22T11:57:03.837Z,1.21
2023-03-22T12:01:03.783Z,0.98
2023-03-22T12:05:03.810Z,1.10
2023-03-22T12:09:04.317Z,1.36
2023-03-22T12:13:03.793Z,1.39
2023-03-22T12:17:14.294Z,1.82
2023-03-22T12:21:03.319Z,1.69
2023-03-22T12:25:03.361Z,1.53
2023-03-22T12:29:03.001Z,1.33
2023-03-22T12:33:03.374Z,2.04
2023-03-22T12:37:03.359Z,2.88
2023-03-22T12:41:02.881Z,3.00
2023-03-22T12:45:05.533Z,3.73
2023-03-22T12:49:03.018Z,3.29
2023-03-22T12:53:02.321Z,3.42
2023-03-22T12:57:02.357Z,3.85
2023-03-22T13:01:02.397Z,3.93
2023-03-22T13:05:02.339Z,4.28
2023-03-22T13:09:01.759Z,4.43
2023-03-22T13:13:01.858Z,4.96
2023-03-22T13:17:01.889Z,5.34
2023-03-22T13:21:01.869Z,5.47
2023-03-22T13:25:01.340Z,5.59
2023-03-22T13:29:01.372Z,5.84
2023-03-22T13:33:01.427Z,5.71
2023-03-22T13:37:00.846Z,6.00
2023-03-22T13:41:00.843Z,6.21
2023-03-22T13:45:00.592Z,6.25
2023-03-22T13:49:01.157Z,6.43
2023-03-22T13:53:00.353Z,5.65
2023-03-22T13:57:00.352Z,6.26
2023-03-22T14:01:00.448Z,6.62
2023-03-22T14:05:00.355Z,6.74
2023-03-22T14:09:00.350Z,7.61
2023-03-22T14:13:00.356Z,8.48
2023-03-22T14:16:59.884Z,8.69
2023-03-22T15:08:57.968Z,9.98
2023-03-22T15:12:59.373Z,12.14
2023-03-22T15:16:59.376Z,17.94
2023-03-22T17:09:00.412Z,10.40
2023-03-22T17:13:00.665Z,10.22
2023-03-22T17:17:00.745Z,10.08
2023-03-22T17:21:00.852Z,9.70
2023-03-22T17:25:00.996Z,9.55
2023-03-22T17:29:01.130Z,9.38
2023-03-22T17:33:01.840Z,9.10
2023-03-22T17:37:01.326Z,8.95
2023-03-22T17:41:02.731Z,8.86
2023-03-22T17:45:01.598Z,8.57
2023-03-22T17:49:01.690Z,8.33
2023-03-22T17:53:01.816Z,8.11
2023-03-22T17:57:26.179Z,8.25
2023-03-22T18:01:01.453Z,8.06
2023-03-22T18:05:01.289Z,7.84
2023-03-22T18:09:01.351Z,7.70
2023-03-22T18:13:01.120Z,7.48
2023-03-22T18:17:01.119Z,7.63
2023-03-22T18:21:01.156Z,7.38
2023-03-22T18:25:00.997Z,7.34
2023-03-22T18:29:01.168Z,7.43
2023-03-22T18:33:06.160Z,7.02
2023-03-22T18:37:01.342Z,6.86
2023-03-22T18:41:31.545Z,7.07
2023-03-22T18:45:01.632Z,6.86
2023-03-22T18:49:01.033Z,7.14
2023-03-22T18:57:00.871Z,6.76
2023-03-22T19:01:00.910Z,6.41
2023-03-22T19:05:00.771Z,6.69
2023-03-22T19:09:00.736Z,6.58
2023-03-22T19:13:00.618Z,6.28
2023-03-22T19:17:00.609Z,6.17
2023-03-22T19:21:10.066Z,5.85
2023-03-22T19:25:00.536Z,6.11
2023-03-22T19:29:00.485Z,6.18
2023-03-22T19:33:24.283Z,6.11
2023-03-22T19:37:00.368Z,6.00
2023-03-22T19:41:38.711Z,5.89
2023-03-22T19:45:00.217Z,5.94
2023-03-22T19:49:00.180Z,5.57
2023-03-22T19:53:14.328Z,5.53
2023-03-22T19:57:00.053Z,5.75
2023-03-22T20:00:59.987Z,5.87
2023-03-22T20:05:02.874Z,5.41
2023-03-22T20:08:59.881Z,5.56
2023-03-22T20:12:59.810Z,5.63
2023-03-22T20:17:05.560Z,5.40
2023-03-22T20:20:59.711Z,5.49
2023-03-22T20:24:59.690Z,5.41
2023-03-22T20:28:59.619Z,5.16
2023-03-22T20:32:59.561Z,5.07
2023-03-22T20:36:59.512Z,5.12
2023-03-22T20:40:59.484Z,4.90
2023-03-22T20:44:59.402Z,5.01
2023-03-22T20:48:59.548Z,4.88
2023-03-22T20:52:59.491Z,4.91
2023-03-22T20:56:59.462Z,4.79
